sensor_id;sensor_type;location;lat;lon;timestamp;temperature;humidity
47921;DHT22;33686;48.770;9.186;2023-05-07T05:15:36;12.80;99.90
47921;DHT22;33686;48.770;9.186;2023-05-07T05:18:02;12.90;99.90
47921;DHT22;33686;48.770;9.186;2023-05-07T05:20:28;12.80;99.90
47921;DHT22;33686;48.770;9.186;2023-05-07T05:22:53;13.00;99.90
47921;DHT22;33686;48.770;9.186;2023-05-07T05:25:19;13.00;99.90
47921;DHT22;33686;48.770;9.186;2023-05-07T05:27:45;13.60;99.90
47921;DHT22;33686;48.770;9.186;2023-05-07T05:30:11;14.90;99.90
47921;DHT22;33686;48.770;9.186;2023-05-07T05:32:38;16.40;99.90
47921;DHT22;33686;48.770;9.186;2023-05-07T05:35:04;17.60;99.90
47921;DHT22;33686;48.770;9.186;2023-05-07T05:37:31;17.90;99.90
47921;DHT22;33686;48.770;9.186;2023-05-07T05:39:58;18.30;99.90
47921;DHT22;33686;48.770;9.186;2023-05-07T05:42:25;18.70;99.90
47921;DHT22;33686;48.770;9.186;2023-05-07T05:44:50;19.00;99.90
47921;DHT22;33686;48.770;9.186;2023-05-07T05:47:16;20.20;99.90
47921;DHT22;33686;48.770;9.186;2023-05-07T05:49:42;20.60;99.90
47921;DHT22;33686;48.770;9.186;2023-05-07T05:52:09;21.10;99.90
47921;DHT22;33686;48.770;9.186;2023-05-07T05:54:35;20.70;99.90
47921;DHT22;33686;48.770;9.186;2023-05-07T05:57:01;20.80;99.90
47921;DHT22;33686;48.770;9.186;2023-05-07T05:59:29;20.10;99.90
47921;DHT22;33686;48.770;9.186;2023-05-07T06:01:55;20.00;99.90
47921;DHT22;33686;48.770;9.186;2023-05-07T06:04:20;19.10;99.90
47921;DHT22;33686;48.770;9.186;2023-05-07T06:06:46;19.30;99.90
47921;DHT22;33686;48.770;9.186;2023-05-07T06:09:12;20.70;99.90
47921;DHT22;33686;48.770;9.186;2023-05-07T06:11:42;20.40;99.90
47921;DHT22;33686;48.770;9.186;2023-05-07T06:14:09;21.30;99.90
47921;DHT22;33686;48.770;9.186;2023-05-07T06:16:34;21.30;99.90
47921;DHT22;33686;48.770;9.186;2023-05-07T06:19:01;22.00;99.90
47921;DHT22;33686;48.770;9.186;2023-05-07T06:21:27;22.00;99.90
47921;DHT22;33686;48.770;9.186;2023-05-07T06:23:53;20.50;99.90
47921;DHT22;33686;48.770;9.186;2023-05-07T06:26:20;20.20;99.90
47921;DHT22;33686;48.770;9.186;2023-05-07T06:28:47;20.10;99.90
47921;DHT22;33686;48.770;9.186;2023-05-07T06:31:18;19.60;99.90
47921;DHT22;33686;48.770;9.186;2023-05-07T06:33:51;19.60;99.90
47921;DHT22;33686;48.770;9.186;2023-05-07T06:36:17;19.50;99.90
47921;DHT22;33686;48.770;9.186;2023-05-07T06:38:44;18.90;99.90
47921;DHT22;33686;48.770;9.186;2023-05-07T06:41:09;18.60;99.90
47921;DHT22;33686;48.770;9.186;2023-05-07T06:43:37;19.00;99.90
47921;DHT22;33686;48.770;9.186;2023-05-07T06:46:38;19.40;99.90
47921;DHT22;33686;48.770;9.186;2023-05-07T06:49:05;20.10;99.90
47921;DHT22;33686;48.770;9.186;2023-05-07T06:51:31;20.00;99.90
47921;DHT22;33686;48.770;9.186;2023-05-07T06:54:01;20.10;99.90
47921;DHT22;33686;48.770;9.186;2023-05-07T06:56:26;21.30;99.90
47921;DHT22;33686;48.770;9.186;2023-05-07T06:58:53;21.60;99.90
47921;DHT22;33686;48.770;9.186;2023-05-07T07:01:19;22.90;99.90
47921;DHT22;33686;48.770;9.186;2023-05-07T07:03:45;23.20;99.90
47921;DHT22;33686;48.770;9.186;2023-05-07T07:06:11;23.60;99.90
47921;DHT22;33686;48.770;9.186;2023-05-07T07:08:36;25.30;99.90
47921;DHT22;33686;48.770;9.186;2023-05-07T07:11:04;24.40;99.90
47921;DHT22;33686;48.770;9.186;2023-05-07T07:13:31;24.20;99.90
47921;DHT22;33686;48.770;9.186;2023-05-07T07:15:57;24.30;99.90
47921;DHT22;33686;48.770;9.186;2023-05-07T07:18:22;24.70;99.90
47921;DHT22;33686;48.770;9.186;2023-05-07T07:20:49;24.00;99.90
47921;DHT22;33686;48.770;9.186;2023-05-07T07:23:15;22.90;99.90
47921;DHT22;33686;48.770;9.186;2023-05-07T07:25:40;24.00;99.90
47921;DHT22;33686;48.770;9.186;2023-05-07T07:28:06;24.20;99.90
47921;DHT22;33686;48.770;9.186;2023-05-07T07:30:32;25.40;99.90
47921;DHT22;33686;48.770;9.186;2023-05-07T07:32:58;26.40;99.90
47921;DHT22;33686;48.770;9.186;2023-05-07T07:35:29;26.00;99.90
47921;DHT22;33686;48.770;9.186;2023-05-07T07:37:55;26.20;99.90
47921;DHT22;33686;48.770;9.186;2023-05-07T07:40:21;26.10;99.80
47921;DHT22;33686;48.770;9.186;2023-05-07T07:42:46;25.00;99.90
47921;DHT22;33686;48.770;9.186;2023-05-07T07:45:12;25.60;99.90
47921;DHT22;33686;48.770;9.186;2023-05-07T07:47:42;26.80;99.50
47921;DHT22;33686;48.770;9.186;2023-05-07T07:50:08;27.60;98.40
47921;DHT22;33686;48.770;9.186;2023-05-07T07:52:34;27.10;98.60
47921;DHT22;33686;48.770;9.186;2023-05-07T07:55:00;27.20;98.80
47921;DHT22;33686;48.770;9.186;2023-05-07T07:57:26;26.70;98.20
47921;DHT22;33686;48.770;9.186;2023-05-07T07:59:52;25.90;99.20
47921;DHT22;33686;48.770;9.186;2023-05-07T08:02:18;25.20;99.90
47921;DHT22;33686;48.770;9.186;2023-05-07T08:04:45;25.30;99.90
47921;DHT22;33686;48.770;9.186;2023-05-07T08:07:11;24.50;99.90
47921;DHT22;33686;48.770;9.186;2023-05-07T08:09:41;25.40;99.90
47921;DHT22;33686;48.770;9.186;2023-05-07T08:12:08;25.50;99.90
47921;DHT22;33686;48.770;9.186;2023-05-07T08:14:35;25.50;99.90
47921;DHT22;33686;48.770;9.186;2023-05-07T08:17:03;26.20;99.30
47921;DHT22;33686;48.770;9.186;2023-05-07T08:19:29;25.70;99.70
47921;DHT22;33686;48.770;9.186;2023-05-07T08:21:55;25.40;99.90
47921;DHT22;33686;48.770;9.186;2023-05-07T08:24:22;25.50;99.70
47921;DHT22;33686;48.770;9.186;2023-05-07T08:26:48;25.40;99.60
47921;DHT22;33686;48.770;9.186;2023-05-07T08:29:15;26.20;98.70
47921;DHT22;33686;48.770;9.186;2023-05-07T08:31:41;27.60;97.50
47921;DHT22;33686;48.770;9.186;2023-05-07T08:34:06;27.50;97.00
47921;DHT22;33686;48.770;9.186;2023-05-07T08:36:34;27.40;97.20
47921;DHT22;33686;48.770;9.186;2023-05-07T08:39:00;25.70;98.40
47921;DHT22;33686;48.770;9.186;2023-05-07T08:41:26;25.60;98.80
47921;DHT22;33686;48.770;9.186;2023-05-07T08:43:52;25.80;98.80
47921;DHT22;33686;48.770;9.186;2023-05-07T08:46:20;25.30;99.40
47921;DHT22;33686;48.770;9.186;2023-05-07T08:48:50;24.90;99.80
47921;DHT22;33686;48.770;9.186;2023-05-07T08:51:16;24.90;99.50
47921;DHT22;33686;48.770;9.186;2023-05-07T08:53:43;25.20;99.50
47921;DHT22;33686;48.770;9.186;2023-05-07T08:56:12;25.70;99.10
47921;DHT22;33686;48.770;9.186;2023-05-07T08:58:39;26.50;98.40
47921;DHT22;33686;48.770;9.186;2023-05-07T09:01:07;27.20;97.40
47921;DHT22;33686;48.770;9.186;2023-05-07T09:03:33;27.20;97.50
47921;DHT22;33686;48.770;9.186;2023-05-07T09:05:59;28.00;96.80
47921;DHT22;33686;48.770;9.186;2023-05-07T09:08:26;28.40;96.30
47921;DHT22;33686;48.770;9.186;2023-05-07T09:10:54;28.50;95.80
47921;DHT22;33686;48.770;9.186;2023-05-07T09:13:22;28.80;95.80
47921;DHT22;33686;48.770;9.186;2023-05-07T09:15:47;29.30;94.90
47921;DHT22;33686;48.770;9.186;2023-05-07T09:18:14;28.60;95.40
47921;DHT22;33686;48.770;9.186;2023-05-07T09:20:40;28.60;95.40
47921;DHT22;33686;48.770;9.186;2023-05-07T09:23:07;27.00;96.30
47921;DHT22;33686;48.770;9.186;2023-05-07T09:25:34;27.60;96.40
47921;DHT22;33686;48.770;9.186;2023-05-07T09:28:05;27.40;96.00
47921;DHT22;33686;48.770;9.186;2023-05-07T09:30:33;26.80;97.00
47921;DHT22;33686;48.770;9.186;2023-05-07T09:33:03;27.10;96.60
47921;DHT22;33686;48.770;9.186;2023-05-07T09:35:29;27.10;96.70
47921;DHT22;33686;48.770;9.186;2023-05-07T09:38:00;26.90;96.70
47921;DHT22;33686;48.770;9.186;2023-05-07T09:40:27;26.50;96.90
47921;DHT22;33686;48.770;9.186;2023-05-07T09:42:55;27.30;96.40
47921;DHT22;33686;48.770;9.186;2023-05-07T09:45:22;27.20;96.50
47921;DHT22;33686;48.770;9.186;2023-05-07T09:47:49;27.30;96.00
47921;DHT22;33686;48.770;9.186;2023-05-07T09:50:15;27.10;95.90
47921;DHT22;33686;48.770;9.186;2023-05-07T09:52:42;26.30;96.60
47921;DHT22;33686;48.770;9.186;2023-05-07T09:55:08;26.40;96.80
47921;DHT22;33686;48.770;9.186;2023-05-07T09:57:36;27.60;95.60
47921;DHT22;33686;48.770;9.186;2023-05-07T10:00:05;26.90;96.10
47921;DHT22;33686;48.770;9.186;2023-05-07T10:02:46;25.70;97.30
47921;DHT22;33686;48.770;9.186;2023-05-07T10:05:14;25.50;97.00
47921;DHT22;33686;48.770;9.186;2023-05-07T10:07:41;25.20;98.10
47921;DHT22;33686;48.770;9.186;2023-05-07T10:10:08;25.20;97.80
47921;DHT22;33686;48.770;9.186;2023-05-07T10:12:39;25.00;98.30
47921;DHT22;33686;48.770;9.186;2023-05-07T10:15:11;25.00;99.00
47921;DHT22;33686;48.770;9.186;2023-05-07T10:17:39;25.00;98.90
47921;DHT22;33686;48.770;9.186;2023-05-07T10:20:06;24.50;99.20
47921;DHT22;33686;48.770;9.186;2023-05-07T10:22:34;24.30;99.30
47921;DHT22;33686;48.770;9.186;2023-05-07T10:25:02;24.70;98.70
47921;DHT22;33686;48.770;9.186;2023-05-07T10:27:29;24.60;98.90
47921;DHT22;33686;48.770;9.186;2023-05-07T10:30:03;25.30;98.40
47921;DHT22;33686;48.770;9.186;2023-05-07T10:35:02;25.00;98.60
47921;DHT22;33686;48.770;9.186;2023-05-07T10:37:29;25.00;98.10
47921;DHT22;33686;48.770;9.186;2023-05-07T10:39:56;25.00;98.00
47921;DHT22;33686;48.770;9.186;2023-05-07T10:42:23;24.90;98.60
47921;DHT22;33686;48.770;9.186;2023-05-07T10:44:52;24.60;99.20
47921;DHT22;33686;48.770;9.186;2023-05-07T10:47:24;25.00;99.20
47921;DHT22;33686;48.770;9.186;2023-05-07T10:52:34;24.60;99.60
47921;DHT22;33686;48.770;9.186;2023-05-07T10:57:38;24.60;98.90
47921;DHT22;33686;48.770;9.186;2023-05-07T11:05:25;24.70;98.90
47921;DHT22;33686;48.770;9.186;2023-05-07T11:08:11;24.60;98.50
47921;DHT22;33686;48.770;9.186;2023-05-07T11:10:56;24.50;98.70
47921;DHT22;33686;48.770;9.186;2023-05-07T11:13:41;24.30;98.10
47921;DHT22;33686;48.770;9.186;2023-05-07T11:16:17;24.30;98.30
47921;DHT22;33686;48.770;9.186;2023-05-07T11:18:47;24.30;98.20
47921;DHT22;33686;48.770;9.186;2023-05-07T11:21:30;24.30;98.60
47921;DHT22;33686;48.770;9.186;2023-05-07T11:24:04;24.10;98.10
47921;DHT22;33686;48.770;9.186;2023-05-07T11:26:50;24.30;97.70
47921;DHT22;33686;48.770;9.186;2023-05-07T11:29:19;24.40;97.30
47921;DHT22;33686;48.770;9.186;2023-05-07T11:31:50;24.70;96.60
47921;DHT22;33686;48.770;9.186;2023-05-07T11:34:23;24.30;96.30
47921;DHT22;33686;48.770;9.186;2023-05-07T11:36:50;24.40;96.20
47921;DHT22;33686;48.770;9.186;2023-05-07T11:39:29;24.50;96.70
47921;DHT22;33686;48.770;9.186;2023-05-07T11:41:55;24.30;96.30
47921;DHT22;33686;48.770;9.186;2023-05-07T11:44:20;24.20;96.90
47921;DHT22;33686;48.770;9.186;2023-05-07T11:46:46;24.40;96.40
47921;DHT22;33686;48.770;9.186;2023-05-07T11:49:12;24.40;96.90
47921;DHT22;33686;48.770;9.186;2023-05-07T11:51:37;24.00;98.10
47921;DHT22;33686;48.770;9.186;2023-05-07T11:54:04;23.70;99.10
47921;DHT22;33686;48.770;9.186;2023-05-07T11:56:34;23.70;99.60
47921;DHT22;33686;48.770;9.186;2023-05-07T11:58:59;23.50;99.90
47921;DHT22;33686;48.770;9.186;2023-05-07T12:01:25;23.20;99.90
47921;DHT22;33686;48.770;9.186;2023-05-07T12:03:51;23.20;99.90
47921;DHT22;33686;48.770;9.186;2023-05-07T12:06:16;23.10;99.90
47921;DHT22;33686;48.770;9.186;2023-05-07T12:08:43;23.00;99.90
47921;DHT22;33686;48.770;9.186;2023-05-07T12:11:10;22.90;99.90
47921;DHT22;33686;48.770;9.186;2023-05-07T12:13:37;22.90;99.90
47921;DHT22;33686;48.770;9.186;2023-05-07T12:16:03;22.80;99.90
47921;DHT22;33686;48.770;9.186;2023-05-07T12:18:29;22.70;99.90
47921;DHT22;33686;48.770;9.186;2023-05-07T12:20:55;22.70;99.90
47921;DHT22;33686;48.770;9.186;2023-05-07T12:23:21;22.20;99.90
47921;DHT22;33686;48.770;9.186;2023-05-07T12:25:47;21.90;99.90
47921;DHT22;33686;48.770;9.186;2023-05-07T12:28:13;21.40;99.90
47921;DHT22;33686;48.770;9.186;2023-05-07T12:30:40;20.80;99.90
47921;DHT22;33686;48.770;9.186;2023-05-07T12:33:06;20.20;99.90
47921;DHT22;33686;48.770;9.186;2023-05-07T12:35:32;19.60;99.90
47921;DHT22;33686;48.770;9.186;2023-05-07T12:38:01;19.20;99.90
47921;DHT22;33686;48.770;9.186;2023-05-07T12:40:39;19.00;99.90
47921;DHT22;33686;48.770;9.186;2023-05-07T12:43:05;18.80;99.90
47921;DHT22;33686;48.770;9.186;2023-05-07T12:45:31;18.90;99.90
47921;DHT22;33686;48.770;9.186;2023-05-07T12:47:57;18.80;99.90
47921;DHT22;33686;48.770;9.186;2023-05-07T12:50:26;18.30;99.90
47921;DHT22;33686;48.770;9.186;2023-05-07T12:52:55;17.70;99.90
47921;DHT22;33686;48.770;9.186;2023-05-07T12:55:21;17.30;99.90
47921;DHT22;33686;48.770;9.186;2023-05-07T12:57:50;17.40;99.90
47921;DHT22;33686;48.770;9.186;2023-05-07T13:00:17;17.30;99.90
47921;DHT22;33686;48.770;9.186;2023-05-07T13:02:43;17.00;99.90
47921;DHT22;33686;48.770;9.186;2023-05-07T13:05:09;17.00;99.90
47921;DHT22;33686;48.770;9.186;2023-05-07T13:07:35;16.90;99.90
47921;DHT22;33686;48.770;9.186;2023-05-07T13:10:02;16.00;99.90
47921;DHT22;33686;48.770;9.186;2023-05-07T13:12:28;15.70;99.90
47921;DHT22;33686;48.770;9.186;2023-05-07T13:14:53;15.00;99.90
47921;DHT22;33686;48.770;9.186;2023-05-07T13:17:19;14.30;99.90
47921;DHT22;33686;48.770;9.186;2023-05-07T13:19:44;14.20;99.90
47921;DHT22;33686;48.770;9.186;2023-05-07T13:22:10;14.50;99.90
47921;DHT22;33686;48.770;9.186;2023-05-07T13:24:36;15.50;99.90
47921;DHT22;33686;48.770;9.186;2023-05-07T13:27:01;15.90;99.90
47921;DHT22;33686;48.770;9.186;2023-05-07T13:29:28;15.90;99.90
47921;DHT22;33686;48.770;9.186;2023-05-07T13:31:58;16.10;99.90
47921;DHT22;33686;48.770;9.186;2023-05-07T13:34:24;15.80;99.90
47921;DHT22;33686;48.770;9.186;2023-05-07T13:36:50;15.70;99.90
47921;DHT22;33686;48.770;9.186;2023-05-07T13:39:15;15.70;99.90
47921;DHT22;33686;48.770;9.186;2023-05-07T13:41:41;15.70;99.90
47921;DHT22;33686;48.770;9.186;2023-05-07T13:44:06;15.50;99.90
47921;DHT22;33686;48.770;9.186;2023-05-07T13:46:32;15.50;99.90
47921;DHT22;33686;48.770;9.186;2023-05-07T13:48:57;15.40;99.90
47921;DHT22;33686;48.770;9.186;2023-05-07T13:51:23;15.80;99.90
47921;DHT22;33686;48.770;9.186;2023-05-07T13:53:50;15.90;99.90
47921;DHT22;33686;48.770;9.186;2023-05-07T13:56:17;15.70;99.90
47921;DHT22;33686;48.770;9.186;2023-05-07T13:58:43;15.60;99.90
47921;DHT22;33686;48.770;9.186;2023-05-07T14:01:08;15.20;99.90
47921;DHT22;33686;48.770;9.186;2023-05-07T14:03:34;15.00;99.90
47921;DHT22;33686;48.770;9.186;2023-05-07T14:06:00;15.30;99.90
47921;DHT22;33686;48.770;9.186;2023-05-07T14:08:27;15.50;99.90
47921;DHT22;33686;48.770;9.186;2023-05-07T14:10:52;15.60;99.90
47921;DHT22;33686;48.770;9.186;2023-05-07T14:13:18;15.70;99.90
47921;DHT22;33686;48.770;9.186;2023-05-07T14:15:44;15.80;99.90
47921;DHT22;33686;48.770;9.186;2023-05-07T14:18:12;15.80;99.90
47921;DHT22;33686;48.770;9.186;2023-05-07T14:20:37;15.90;99.90
47921;DHT22;33686;48.770;9.186;2023-05-07T14:23:03;15.90;99.90
47921;DHT22;33686;48.770;9.186;2023-05-07T14:25:29;16.00;99.90
47921;DHT22;33686;48.770;9.186;2023-05-07T14:27:54;15.90;99.90
47921;DHT22;33686;48.770;9.186;2023-05-07T14:30:20;15.90;99.90
47921;DHT22;33686;48.770;9.186;2023-05-07T14:32:45;16.00;99.90
47921;DHT22;33686;48.770;9.186;2023-05-07T14:35:11;16.00;99.90
47921;DHT22;33686;48.770;9.186;2023-05-07T14:37:36;16.10;99.90
47921;DHT22;33686;48.770;9.186;2023-05-07T14:40:02;16.10;99.90
47921;DHT22;33686;48.770;9.186;2023-05-07T14:42:27;16.00;99.90
47921;DHT22;33686;48.770;9.186;2023-05-07T14:44:53;16.00;99.90
47921;DHT22;33686;48.770;9.186;2023-05-07T14:47:18;16.10;99.90
47921;DHT22;33686;48.770;9.186;2023-05-07T14:49:44;16.20;99.90
47921;DHT22;33686;48.770;9.186;2023-05-07T14:52:09;16.30;99.90
47921;DHT22;33686;48.770;9.186;2023-05-07T14:54:36;16.40;99.90
47921;DHT22;33686;48.770;9.186;2023-05-07T14:57:02;16.40;99.90
47921;DHT22;33686;48.770;9.186;2023-05-07T14:59:27;16.10;99.90
47921;DHT22;33686;48.770;9.186;2023-05-07T15:01:53;16.10;99.90
47921;DHT22;33686;48.770;9.186;2023-05-07T15:04:19;16.20;99.90
47921;DHT22;33686;48.770;9.186;2023-05-07T15:06:45;16.10;99.90
47921;DHT22;33686;48.770;9.186;2023-05-07T15:09:11;16.00;99.90
47921;DHT22;33686;48.770;9.186;2023-05-07T15:11:37;16.10;99.90
47921;DHT22;33686;48.770;9.186;2023-05-07T15:14:03;16.10;99.90
47921;DHT22;33686;48.770;9.186;2023-05-07T15:16:29;16.10;99.90
47921;DHT22;33686;48.770;9.186;2023-05-07T15:18:54;16.20;99.90
47921;DHT22;33686;48.770;9.186;2023-05-07T15:21:21;16.20;99.90
47921;DHT22;33686;48.770;9.186;2023-05-07T15:23:46;16.20;99.90
47921;DHT22;33686;48.770;9.186;2023-05-07T15:26:12;16.30;99.90
47921;DHT22;33686;48.770;9.186;2023-05-07T15:28:37;16.30;99.90
47921;DHT22;33686;48.770;9.186;2023-05-07T15:31:03;16.30;99.90
47921;DHT22;33686;48.770;9.186;2023-05-07T15:33:29;16.10;99.90
47921;DHT22;33686;48.770;9.186;2023-05-07T15:35:54;16.10;99.90
47921;DHT22;33686;48.770;9.186;2023-05-07T15:38:24;16.10;99.90
47921;DHT22;33686;48.770;9.186;2023-05-07T15:40:50;16.10;99.90
47921;DHT22;33686;48.770;9.186;2023-05-07T15:43:15;16.10;99.90
47921;DHT22;33686;48.770;9.186;2023-05-07T15:45:41;16.10;99.90
47921;DHT22;33686;48.770;9.186;2023-05-07T15:48:08;16.20;99.90
47921;DHT22;33686;48.770;9.186;2023-05-07T15:50:33;16.30;99.90
47921;DHT22;33686;48.770;9.186;2023-05-07T15:52:59;16.30;99.90
47921;DHT22;33686;48.770;9.186;2023-05-07T15:55:24;16.40;99.90
47921;DHT22;33686;48.770;9.186;2023-05-07T15:57:50;16.50;99.90
47921;DHT22;33686;48.770;9.186;2023-05-07T16:00:16;16.50;99.90
47921;DHT22;33686;48.770;9.186;2023-05-07T16:02:43;16.50;99.90
47921;DHT22;33686;48.770;9.186;2023-05-07T16:05:09;16.60;99.90
47921;DHT22;33686;48.770;9.186;2023-05-07T16:07:35;16.60;99.90
47921;DHT22;33686;48.770;9.186;2023-05-07T16:10:01;16.60;99.90
47921;DHT22;33686;48.770;9.186;2023-05-07T16:12:27;16.50;99.90
47921;DHT22;33686;48.770;9.186;2023-05-07T16:14:52;16.60;99.90
47921;DHT22;33686;48.770;9.186;2023-05-07T16:17:18;16.50;99.90
47921;DHT22;33686;48.770;9.186;2023-05-07T16:19:43;16.50;99.90
47921;DHT22;33686;48.770;9.186;2023-05-07T16:22:09;16.50;99.90
47921;DHT22;33686;48.770;9.186;2023-05-07T16:24:34;16.60;99.90
47921;DHT22;33686;48.770;9.186;2023-05-07T16:27:00;16.60;99.90
47921;DHT22;33686;48.770;9.186;2023-05-07T16:29:25;16.50;99.90
47921;DHT22;33686;48.770;9.186;2023-05-07T16:31:52;16.50;99.90
47921;DHT22;33686;48.770;9.186;2023-05-07T16:34:17;16.50;99.90
47921;DHT22;33686;48.770;9.186;2023-05-07T16:36:43;16.70;99.90
47921;DHT22;33686;48.770;9.186;2023-05-07T16:39:08;16.60;99.90
47921;DHT22;33686;48.770;9.186;2023-05-07T16:41:34;16.50;99.90
47921;DHT22;33686;48.770;9.186;2023-05-07T16:44:00;16.50;99.90
47921;DHT22;33686;48.770;9.186;2023-05-07T16:46:26;16.50;99.90
47921;DHT22;33686;48.770;9.186;2023-05-07T16:48:52;16.60;99.90
47921;DHT22;33686;48.770;9.186;2023-05-07T16:51:17;16.60;99.90
47921;DHT22;33686;48.770;9.186;2023-05-07T16:53:43;16.60;99.90
47921;DHT22;33686;48.770;9.186;2023-05-07T16:56:08;16.50;99.90
47921;DHT22;33686;48.770;9.186;2023-05-07T16:58:34;16.50;99.90
47921;DHT22;33686;48.770;9.186;2023-05-07T17:01:00;16.50;99.90
47921;DHT22;33686;48.770;9.186;2023-05-07T17:03:27;16.50;99.90
47921;DHT22;33686;48.770;9.186;2023-05-07T17:05:53;16.70;99.90
47921;DHT22;33686;48.770;9.186;2023-05-07T17:08:19;16.60;99.90
47921;DHT22;33686;48.770;9.186;2023-05-07T17:10:44;16.60;99.90
47921;DHT22;33686;48.770;9.186;2023-05-07T17:13:11;16.50;99.90
47921;DHT22;33686;48.770;9.186;2023-05-07T17:15:36;16.60;99.90
47921;DHT22;33686;48.770;9.186;2023-05-07T17:18:02;16.70;99.90
47921;DHT22;33686;48.770;9.186;2023-05-07T17:20:27;16.70;99.90
47921;DHT22;33686;48.770;9.186;2023-05-07T17:22:53;16.70;99.90
47921;DHT22;33686;48.770;9.186;2023-05-07T17:25:19;16.70;99.90
47921;DHT22;33686;48.770;9.186;2023-05-07T17:27:47;16.70;99.90
47921;DHT22;33686;48.770;9.186;2023-05-07T17:30:13;16.70;99.90
47921;DHT22;33686;48.770;9.186;2023-05-07T17:32:40;16.80;99.90
47921;DHT22;33686;48.770;9.186;2023-05-07T17:35:05;16.80;99.90
47921;DHT22;33686;48.770;9.186;2023-05-07T17:37:31;16.90;99.90
47921;DHT22;33686;48.770;9.186;2023-05-07T17:39:56;16.80;99.90
47921;DHT22;33686;48.770;9.186;2023-05-07T17:42:22;16.70;99.90
47921;DHT22;33686;48.770;9.186;2023-05-07T17:44:48;16.50;99.90
47921;DHT22;33686;48.770;9.186;2023-05-07T17:47:13;16.50;99.90
47921;DHT22;33686;48.770;9.186;2023-05-07T17:49:39;16.60;99.90
47921;DHT22;33686;48.770;9.186;2023-05-07T17:52:04;16.60;99.90
47921;DHT22;33686;48.770;9.186;2023-05-07T17:54:30;16.50;99.90
47921;DHT22;33686;48.770;9.186;2023-05-07T17:56:56;16.50;99.90
47921;DHT22;33686;48.770;9.186;2023-05-07T17:59:21;16.40;99.90
47921;DHT22;33686;48.770;9.186;2023-05-07T18:01:47;16.40;99.90
47921;DHT22;33686;48.770;9.186;2023-05-07T18:04:12;16.40;99.90
47921;DHT22;33686;48.770;9.186;2023-05-07T18:06:38;16.40;99.90
47921;DHT22;33686;48.770;9.186;2023-05-07T18:09:04;16.30;99.90
47921;DHT22;33686;48.770;9.186;2023-05-07T18:11:29;16.30;99.90
47921;DHT22;33686;48.770;9.186;2023-05-07T18:13:57;16.20;99.90
47921;DHT22;33686;48.770;9.186;2023-05-07T18:16:23;16.10;99.90
47921;DHT22;33686;48.770;9.186;2023-05-07T18:18:48;16.20;99.90
47921;DHT22;33686;48.770;9.186;2023-05-07T18:21:14;16.20;99.90
47921;DHT22;33686;48.770;9.186;2023-05-07T18:23:43;16.20;99.90
47921;DHT22;33686;48.770;9.186;2023-05-07T18:26:09;16.10;99.90
47921;DHT22;33686;48.770;9.186;2023-05-07T18:28:35;16.00;99.90
47921;DHT22;33686;48.770;9.186;2023-05-07T18:31:01;15.90;99.90
47921;DHT22;33686;48.770;9.186;2023-05-07T18:33:26;15.90;99.90
47921;DHT22;33686;48.770;9.186;2023-05-07T18:35:52;15.80;99.90
47921;DHT22;33686;48.770;9.186;2023-05-07T18:38:17;15.90;99.90
47921;DHT22;33686;48.770;9.186;2023-05-07T18:40:43;15.80;99.90
47921;DHT22;33686;48.770;9.186;2023-05-07T18:43:09;15.70;99.90
47921;DHT22;33686;48.770;9.186;2023-05-07T18:45:35;15.70;99.90
47921;DHT22;33686;48.770;9.186;2023-05-07T18:48:02;15.60;99.90
47921;DHT22;33686;48.770;9.186;2023-05-07T18:50:28;15.70;99.90
47921;DHT22;33686;48.770;9.186;2023-05-07T18:52:53;15.70;99.90
47921;DHT22;33686;48.770;9.186;2023-05-07T18:55:19;15.60;99.90
47921;DHT22;33686;48.770;9.186;2023-05-07T18:57:46;15.60;99.90
47921;DHT22;33686;48.770;9.186;2023-05-07T19:00:13;15.50;99.90
47921;DHT22;33686;48.770;9.186;2023-05-07T19:02:38;15.60;99.90
47921;DHT22;33686;48.770;9.186;2023-05-07T19:05:04;15.60;99.90
47921;DHT22;33686;48.770;9.186;2023-05-07T19:07:30;15.50;99.90
47921;DHT22;33686;48.770;9.186;2023-05-07T19:09:55;15.50;99.90
47921;DHT22;33686;48.770;9.186;2023-05-07T19:12:21;15.50;99.90
47921;DHT22;33686;48.770;9.186;2023-05-07T19:14:47;15.50;99.90
47921;DHT22;33686;48.770;9.186;2023-05-07T19:17:12;15.50;99.90
47921;DHT22;33686;48.770;9.186;2023-05-07T19:19:38;15.40;99.90
47921;DHT22;33686;48.770;9.186;2023-05-07T19:22:04;15.30;99.90
47921;DHT22;33686;48.770;9.186;2023-05-07T19:24:30;15.30;99.90
47921;DHT22;33686;48.770;9.186;2023-05-07T19:26:55;15.40;99.90
47921;DHT22;33686;48.770;9.186;2023-05-07T19:29:21;15.50;99.90
47921;DHT22;33686;48.770;9.186;2023-05-07T19:31:46;15.50;99.90
47921;DHT22;33686;48.770;9.186;2023-05-07T19:34:12;15.40;99.90
47921;DHT22;33686;48.770;9.186;2023-05-07T19:36:38;15.40;99.90
47921;DHT22;33686;48.770;9.186;2023-05-07T19:39:04;15.20;99.90
47921;DHT22;33686;48.770;9.186;2023-05-07T19:41:29;15.00;99.90
47921;DHT22;33686;48.770;9.186;2023-05-07T19:43:55;15.10;99.90
47921;DHT22;33686;48.770;9.186;2023-05-07T19:46:20;15.30;99.90
47921;DHT22;33686;48.770;9.186;2023-05-07T19:48:46;15.30;99.90
47921;DHT22;33686;48.770;9.186;2023-05-07T19:51:11;15.30;99.90
47921;DHT22;33686;48.770;9.186;2023-05-07T19:53:37;15.30;99.90
47921;DHT22;33686;48.770;9.186;2023-05-07T19:56:03;15.30;99.90
47921;DHT22;33686;48.770;9.186;2023-05-07T19:58:29;15.10;99.90
47921;DHT22;33686;48.770;9.186;2023-05-07T20:00:54;15.10;99.90
47921;DHT22;33686;48.770;9.186;2023-05-07T20:03:20;15.20;99.90
47921;DHT22;33686;48.770;9.186;2023-05-07T20:05:46;15.20;99.90
47921;DHT22;33686;48.770;9.186;2023-05-07T20:08:12;15.00;99.90
47921;DHT22;33686;48.770;9.186;2023-05-07T20:10:37;14.90;99.90
47921;DHT22;33686;48.770;9.186;2023-05-07T20:13:03;14.70;99.90
47921;DHT22;33686;48.770;9.186;2023-05-07T20:15:28;14.80;99.90
47921;DHT22;33686;48.770;9.186;2023-05-07T20:17:54;14.80;99.90
47921;DHT22;33686;48.770;9.186;2023-05-07T20:20:19;14.90;99.90
47921;DHT22;33686;48.770;9.186;2023-05-07T20:22:45;14.80;99.90
47921;DHT22;33686;48.770;9.186;2023-05-07T20:25:11;14.80;99.90
47921;DHT22;33686;48.770;9.186;2023-05-07T20:27:39;14.70;99.90
47921;DHT22;33686;48.770;9.186;2023-05-07T20:30:05;14.60;99.90
47921;DHT22;33686;48.770;9.186;2023-05-07T20:32:31;14.60;99.90
47921;DHT22;33686;48.770;9.186;2023-05-07T20:34:57;14.60;99.90
47921;DHT22;33686;48.770;9.186;2023-05-07T20:37:22;14.60;99.90
47921;DHT22;33686;48.770;9.186;2023-05-07T20:39:49;14.80;99.90
47921;DHT22;33686;48.770;9.186;2023-05-07T20:42:15;14.90;99.90
47921;DHT22;33686;48.770;9.186;2023-05-07T20:44:40;15.00;99.90
47921;DHT22;33686;48.770;9.186;2023-05-07T20:47:06;15.00;99.90
47921;DHT22;33686;48.770;9.186;2023-05-07T20:49:31;15.00;99.90
47921;DHT22;33686;48.770;9.186;2023-05-07T20:51:57;15.00;99.90
47921;DHT22;33686;48.770;9.186;2023-05-07T20:54:23;15.00;99.90